<?xml version="1.0" encoding="UTF-8"?>
<gpx xmlns="http://www.topografix.com/GPX/1/1" xmlns:xsi="http://www.w3.org/2001/XMLSchema-instance" version="1.1" xsi:schemaLocation="http://www.topografix.com/GPX/1/1 http://www.topografix.com/GPX/1/1/gpx.xsd">
  <metadata>
    <name>Brett Robinson Alabama Coastal Triathlon - Olympic Aquabike</name>
  </metadata>
  <trk>
    <name>Brett Robinson Alabama Coastal Triathlon - Olympic Aquabike</name>
    <trkseg>
      <trkpt lat="30.248185" lon="-87.691555">
        <ele>1.750775</ele>
        <time>2022-09-10T07:30:00.000Z</time>
      </trkpt>
      <trkpt lat="30.248075" lon="-87.692041">
        <ele>1.750792</ele>
        <time>2022-09-10T07:30:05.000Z</time>
      </trkpt>
      <trkpt lat="30.248062" lon="-87.692101">
        <ele>1.750783</ele>
        <time>2022-09-10T07:30:06.000Z</time>
      </trkpt>
      <trkpt lat="30.247937" lon="-87.6928">
        <ele>1.670257</ele>
        <time>2022-09-10T07:30:13.000Z</time>
      </trkpt>
      <trkpt lat="30.247809" lon="-87.69341">
        <ele>1.461814</ele>
        <time>2022-09-10T07:30:19.000Z</time>
      </trkpt>
      <trkpt lat="30.247637" lon="-87.694311">
        <ele>1.159231</ele>
        <time>2022-09-10T07:30:28.000Z</time>
      </trkpt>
      <trkpt lat="30.247458" lon="-87.695217">
        <ele>1.039731</ele>
        <time>2022-09-10T07:30:37.000Z</time>
      </trkpt>
      <trkpt lat="30.24722" lon="-87.696415">
        <ele>1.006239</ele>
        <time>2022-09-10T07:30:49.000Z</time>
      </trkpt>
      <trkpt lat="30.247205" lon="-87.696566">
        <ele>1.00185</ele>
        <time>2022-09-10T07:30:50.000Z</time>
      </trkpt>
      <trkpt lat="30.247126" lon="-87.696939">
        <ele>0.999992</ele>
        <time>2022-09-10T07:30:54.000Z</time>
      </trkpt>
      <trkpt lat="30.246929" lon="-87.698">
        <ele>1.000009</ele>
        <time>2022-09-10T07:31:04.000Z</time>
      </trkpt>
      <trkpt lat="30.246798" lon="-87.698675">
        <ele>1.000084</ele>
        <time>2022-09-10T07:31:11.000Z</time>
      </trkpt>
      <trkpt lat="30.246607" lon="-87.699608">
        <ele>1.010998</ele>
        <time>2022-09-10T07:31:20.000Z</time>
      </trkpt>
      <trkpt lat="30.24646" lon="-87.700425">
        <ele>1.020822</ele>
        <time>2022-09-10T07:31:28.000Z</time>
      </trkpt>
      <trkpt lat="30.246129" lon="-87.702124">
        <ele>1.158887</ele>
        <time>2022-09-10T07:31:45.000Z</time>
      </trkpt>
      <trkpt lat="30.245884" lon="-87.703312">
        <ele>1.40132</ele>
        <time>2022-09-10T07:31:57.000Z</time>
      </trkpt>
      <trkpt lat="30.245743" lon="-87.704093">
        <ele>1.64716</ele>
        <time>2022-09-10T07:32:05.000Z</time>
      </trkpt>
      <trkpt lat="30.245709" lon="-87.704267">
        <ele>1.706288</ele>
        <time>2022-09-10T07:32:07.000Z</time>
      </trkpt>
      <trkpt lat="30.245654" lon="-87.704527">
        <ele>1.787924</ele>
        <time>2022-09-10T07:32:10.000Z</time>
      </trkpt>
      <trkpt lat="30.245644" lon="-87.704576">
        <ele>1.800911</ele>
        <time>2022-09-10T07:32:10.000Z</time>
      </trkpt>
      <trkpt lat="30.245552" lon="-87.7051">
        <ele>1.929643</ele>
        <time>2022-09-10T07:32:15.000Z</time>
      </trkpt>
      <trkpt lat="30.245412" lon="-87.705895">
        <ele>2.09238</ele>
        <time>2022-09-10T07:32:23.000Z</time>
      </trkpt>
      <trkpt lat="30.245364" lon="-87.70629">
        <ele>2.176416</ele>
        <time>2022-09-10T07:32:27.000Z</time>
      </trkpt>
      <trkpt lat="30.244941" lon="-87.709508">
        <ele>2.228639</ele>
        <time>2022-09-10T07:32:58.000Z</time>
      </trkpt>
      <trkpt lat="30.244862" lon="-87.710147">
        <ele>2.235953</ele>
        <time>2022-09-10T07:33:04.000Z</time>
      </trkpt>
      <trkpt lat="30.244788" lon="-87.710763">
        <ele>2.242913</ele>
        <time>2022-09-10T07:33:10.000Z</time>
      </trkpt>
      <trkpt lat="30.244479" lon="-87.713089">
        <ele>2.422814</ele>
        <time>2022-09-10T07:33:33.000Z</time>
      </trkpt>
      <trkpt lat="30.244188" lon="-87.715378">
        <ele>2.217226</ele>
        <time>2022-09-10T07:33:55.000Z</time>
      </trkpt>
      <trkpt lat="30.244073" lon="-87.716295">
        <ele>2.136159</ele>
        <time>2022-09-10T07:34:04.000Z</time>
      </trkpt>
      <trkpt lat="30.244022" lon="-87.716822">
        <ele>2.090509</ele>
        <time>2022-09-10T07:34:09.000Z</time>
      </trkpt>
      <trkpt lat="30.24387" lon="-87.717975">
        <ele>2.009813</ele>
        <time>2022-09-10T07:34:20.000Z</time>
      </trkpt>
      <trkpt lat="30.243755" lon="-87.718967">
        <ele>1.947229</ele>
        <time>2022-09-10T07:34:30.000Z</time>
      </trkpt>
      <trkpt lat="30.243324" lon="-87.722335">
        <ele>1.449882</ele>
        <time>2022-09-10T07:35:03.000Z</time>
      </trkpt>
      <trkpt lat="30.242405" lon="-87.729823">
        <ele>0.921539</ele>
        <time>2022-09-10T07:36:16.000Z</time>
      </trkpt>
      <trkpt lat="30.242303" lon="-87.730715">
        <ele>1.067797</ele>
        <time>2022-09-10T07:36:25.000Z</time>
      </trkpt>
      <trkpt lat="30.242018" lon="-87.733131">
        <ele>1.494521</ele>
        <time>2022-09-10T07:36:48.000Z</time>
      </trkpt>
      <trkpt lat="30.241935" lon="-87.733711">
        <ele>1.570286</ele>
        <time>2022-09-10T07:36:54.000Z</time>
      </trkpt>
      <trkpt lat="30.241865" lon="-87.734392">
        <ele>1.517754</ele>
        <time>2022-09-10T07:37:01.000Z</time>
      </trkpt>
      <trkpt lat="30.2416" lon="-87.736511">
        <ele>1.305486</ele>
        <time>2022-09-10T07:37:22.000Z</time>
      </trkpt>
      <trkpt lat="30.241481" lon="-87.737574">
        <ele>1.16331</ele>
        <time>2022-09-10T07:37:32.000Z</time>
      </trkpt>
      <trkpt lat="30.241404" lon="-87.738178">
        <ele>1.154657</ele>
        <time>2022-09-10T07:37:38.000Z</time>
      </trkpt>
      <trkpt lat="30.241249" lon="-87.739212">
        <ele>1.179017</ele>
        <time>2022-09-10T07:37:48.000Z</time>
      </trkpt>
      <trkpt lat="30.241083" lon="-87.740498">
        <ele>1.142199</ele>
        <time>2022-09-10T07:38:00.000Z</time>
      </trkpt>
      <trkpt lat="30.240689" lon="-87.743142">
        <ele>1.010955</ele>
        <time>2022-09-10T07:38:26.000Z</time>
      </trkpt>
      <trkpt lat="30.240629" lon="-87.743497">
        <ele>1.000683</ele>
        <time>2022-09-10T07:38:29.000Z</time>
      </trkpt>
      <trkpt lat="30.240465" lon="-87.744547">
        <ele>1.052529</ele>
        <time>2022-09-10T07:38:39.000Z</time>
      </trkpt>
      <trkpt lat="30.240446" lon="-87.744708">
        <ele>1.067263</ele>
        <time>2022-09-10T07:38:41.000Z</time>
      </trkpt>
      <trkpt lat="30.240282" lon="-87.745731">
        <ele>1.164558</ele>
        <time>2022-09-10T07:38:51.000Z</time>
      </trkpt>
      <trkpt lat="30.240102" lon="-87.746762">
        <ele>1.144858</ele>
        <time>2022-09-10T07:39:01.000Z</time>
      </trkpt>
      <trkpt lat="30.240103" lon="-87.746862">
        <ele>1.140533</ele>
        <time>2022-09-10T07:39:02.000Z</time>
      </trkpt>
      <trkpt lat="30.240055" lon="-87.747115">
        <ele>1.128019</ele>
        <time>2022-09-10T07:39:04.000Z</time>
      </trkpt>
      <trkpt lat="30.240032" lon="-87.747257">
        <ele>1.12154</ele>
        <time>2022-09-10T07:39:05.000Z</time>
      </trkpt>
      <trkpt lat="30.239989" lon="-87.747496">
        <ele>1.110714</ele>
        <time>2022-09-10T07:39:07.000Z</time>
      </trkpt>
      <trkpt lat="30.239726" lon="-87.749191">
        <ele>1.061864</ele>
        <time>2022-09-10T07:39:24.000Z</time>
      </trkpt>
      <trkpt lat="30.239661" lon="-87.751154">
        <ele>1.12527</ele>
        <time>2022-09-10T07:39:43.000Z</time>
      </trkpt>
      <trkpt lat="30.239615" lon="-87.752262">
        <ele>1.210486</ele>
        <time>2022-09-10T07:39:54.000Z</time>
      </trkpt>
      <trkpt lat="30.239511" lon="-87.753021">
        <ele>1.294662</ele>
        <time>2022-09-10T07:40:01.000Z</time>
      </trkpt>
      <trkpt lat="30.239393" lon="-87.753581">
        <ele>1.358138</ele>
        <time>2022-09-10T07:40:07.000Z</time>
      </trkpt>
      <trkpt lat="30.23878" lon="-87.755503">
        <ele>1.451827</ele>
        <time>2022-09-10T07:40:27.000Z</time>
      </trkpt>
      <trkpt lat="30.238608" lon="-87.756136">
        <ele>1.459219</ele>
        <time>2022-09-10T07:40:33.000Z</time>
      </trkpt>
      <trkpt lat="30.238149" lon="-87.758932">
        <ele>1.211636</ele>
        <time>2022-09-10T07:41:00.000Z</time>
      </trkpt>
      <trkpt lat="30.238108" lon="-87.759226">
        <ele>1.20879</ele>
        <time>2022-09-10T07:41:03.000Z</time>
      </trkpt>
      <trkpt lat="30.23808" lon="-87.759474">
        <ele>1.206483</ele>
        <time>2022-09-10T07:41:05.000Z</time>
      </trkpt>
      <trkpt lat="30.238037" lon="-87.75975">
        <ele>1.203728</ele>
        <time>2022-09-10T07:41:08.000Z</time>
      </trkpt>
      <trkpt lat="30.238009" lon="-87.759901">
        <ele>1.20235</ele>
        <time>2022-09-10T07:41:09.000Z</time>
      </trkpt>
      <trkpt lat="30.237823" lon="-87.761114">
        <ele>1.160755</ele>
        <time>2022-09-10T07:41:21.000Z</time>
      </trkpt>
      <trkpt lat="30.237611" lon="-87.762425">
        <ele>1.107569</ele>
        <time>2022-09-10T07:41:34.000Z</time>
      </trkpt>
      <trkpt lat="30.237461" lon="-87.7637">
        <ele>1.066867</ele>
        <time>2022-09-10T07:41:46.000Z</time>
      </trkpt>
      <trkpt lat="30.23738" lon="-87.765179">
        <ele>1.12736</ele>
        <time>2022-09-10T07:42:00.000Z</time>
      </trkpt>
      <trkpt lat="30.23706" lon="-87.766895">
        <ele>1.307745</ele>
        <time>2022-09-10T07:42:17.000Z</time>
      </trkpt>
      <trkpt lat="30.236938" lon="-87.767642">
        <ele>1.403843</ele>
        <time>2022-09-10T07:42:24.000Z</time>
      </trkpt>
      <trkpt lat="30.236518" lon="-87.769888">
        <ele>1.64568</ele>
        <time>2022-09-10T07:42:46.000Z</time>
      </trkpt>
      <trkpt lat="30.234704" lon="-87.779739">
        <ele>1.7204</ele>
        <time>2022-09-10T07:44:23.000Z</time>
      </trkpt>
      <trkpt lat="30.233751" lon="-87.784429">
        <ele>1.103641</ele>
        <time>2022-09-10T07:45:09.000Z</time>
      </trkpt>
      <trkpt lat="30.233691" lon="-87.78479">
        <ele>1.065568</ele>
        <time>2022-09-10T07:45:13.000Z</time>
      </trkpt>
      <trkpt lat="30.233525" lon="-87.785655">
        <ele>1.035979</ele>
        <time>2022-09-10T07:45:22.000Z</time>
      </trkpt>
      <trkpt lat="30.233495" lon="-87.785787">
        <ele>1.031129</ele>
        <time>2022-09-10T07:45:23.000Z</time>
      </trkpt>
      <trkpt lat="30.233373" lon="-87.78632">
        <ele>1.012835</ele>
        <time>2022-09-10T07:45:28.000Z</time>
      </trkpt>
      <trkpt lat="30.233359" lon="-87.786432">
        <ele>1.009126</ele>
        <time>2022-09-10T07:45:29.000Z</time>
      </trkpt>
      <trkpt lat="30.233271" lon="-87.786903">
        <ele>1.000006</ele>
        <time>2022-09-10T07:45:34.000Z</time>
      </trkpt>
      <trkpt lat="30.233208" lon="-87.787285">
        <ele>1.000007</ele>
        <time>2022-09-10T07:45:38.000Z</time>
      </trkpt>
      <trkpt lat="30.232427" lon="-87.793459">
        <ele>1.000007</ele>
        <time>2022-09-10T07:46:38.000Z</time>
      </trkpt>
      <trkpt lat="30.233198" lon="-87.787276">
        <ele>1.000005</ele>
        <time>2022-09-10T07:47:38.000Z</time>
      </trkpt>
      <trkpt lat="30.23326" lon="-87.786894">
        <ele>0.999999</ele>
        <time>2022-09-10T07:47:42.000Z</time>
      </trkpt>
      <trkpt lat="30.233354" lon="-87.786428">
        <ele>0.999996</ele>
        <time>2022-09-10T07:47:47.000Z</time>
      </trkpt>
      <trkpt lat="30.233383" lon="-87.786327">
        <ele>0.999995</ele>
        <time>2022-09-10T07:47:48.000Z</time>
      </trkpt>
      <trkpt lat="30.233486" lon="-87.785789">
        <ele>1.002551</ele>
        <time>2022-09-10T07:47:53.000Z</time>
      </trkpt>
      <trkpt lat="30.233509" lon="-87.785642">
        <ele>1.015908</ele>
        <time>2022-09-10T07:47:54.000Z</time>
      </trkpt>
      <trkpt lat="30.233691" lon="-87.784793">
        <ele>1.097448</ele>
        <time>2022-09-10T07:48:02.000Z</time>
      </trkpt>
      <trkpt lat="30.233753" lon="-87.784446">
        <ele>1.130559</ele>
        <time>2022-09-10T07:48:05.000Z</time>
      </trkpt>
      <trkpt lat="30.234696" lon="-87.779731">
        <ele>1.759539</ele>
        <time>2022-09-10T07:48:51.000Z</time>
      </trkpt>
      <trkpt lat="30.236518" lon="-87.769882">
        <ele>1.653569</ele>
        <time>2022-09-10T07:50:28.000Z</time>
      </trkpt>
      <trkpt lat="30.236929" lon="-87.76765">
        <ele>1.399723</ele>
        <time>2022-09-10T07:50:50.000Z</time>
      </trkpt>
      <trkpt lat="30.23706" lon="-87.766906">
        <ele>1.309889</ele>
        <time>2022-09-10T07:50:57.000Z</time>
      </trkpt>
      <trkpt lat="30.23738" lon="-87.765175">
        <ele>1.126429</ele>
        <time>2022-09-10T07:51:14.000Z</time>
      </trkpt>
      <trkpt lat="30.237461" lon="-87.763705">
        <ele>1.056535</ele>
        <time>2022-09-10T07:51:28.000Z</time>
      </trkpt>
      <trkpt lat="30.237617" lon="-87.762408">
        <ele>1.103763</ele>
        <time>2022-09-10T07:51:41.000Z</time>
      </trkpt>
      <trkpt lat="30.237814" lon="-87.76112">
        <ele>1.170656</ele>
        <time>2022-09-10T07:51:54.000Z</time>
      </trkpt>
      <trkpt lat="30.237999" lon="-87.759891">
        <ele>1.174102</ele>
        <time>2022-09-10T07:52:06.000Z</time>
      </trkpt>
      <trkpt lat="30.238033" lon="-87.75976">
        <ele>1.174523</ele>
        <time>2022-09-10T07:52:07.000Z</time>
      </trkpt>
      <trkpt lat="30.238072" lon="-87.759464">
        <ele>1.175336</ele>
        <time>2022-09-10T07:52:10.000Z</time>
      </trkpt>
      <trkpt lat="30.238109" lon="-87.759229">
        <ele>1.182012</ele>
        <time>2022-09-10T07:52:12.000Z</time>
      </trkpt>
      <trkpt lat="30.238158" lon="-87.758933">
        <ele>1.205769</ele>
        <time>2022-09-10T07:52:15.000Z</time>
      </trkpt>
      <trkpt lat="30.238608" lon="-87.756137">
        <ele>1.415905</ele>
        <time>2022-09-10T07:52:42.000Z</time>
      </trkpt>
      <trkpt lat="30.238766" lon="-87.755502">
        <ele>1.460161</ele>
        <time>2022-09-10T07:52:48.000Z</time>
      </trkpt>
      <trkpt lat="30.239395" lon="-87.753578">
        <ele>1.357964</ele>
        <time>2022-09-10T07:53:08.000Z</time>
      </trkpt>
      <trkpt lat="30.239506" lon="-87.753028">
        <ele>1.307934</ele>
        <time>2022-09-10T07:53:13.000Z</time>
      </trkpt>
      <trkpt lat="30.239616" lon="-87.752252">
        <ele>1.225824</ele>
        <time>2022-09-10T07:53:21.000Z</time>
      </trkpt>
      <trkpt lat="30.239656" lon="-87.751157">
        <ele>1.112165</ele>
        <time>2022-09-10T07:53:32.000Z</time>
      </trkpt>
      <trkpt lat="30.239736" lon="-87.749184">
        <ele>1.030906</ele>
        <time>2022-09-10T07:53:51.000Z</time>
      </trkpt>
      <trkpt lat="30.239994" lon="-87.747494">
        <ele>1.132976</ele>
        <time>2022-09-10T07:54:07.000Z</time>
      </trkpt>
      <trkpt lat="30.240036" lon="-87.747259">
        <ele>1.147578</ele>
        <time>2022-09-10T07:54:09.000Z</time>
      </trkpt>
      <trkpt lat="30.240052" lon="-87.747129">
        <ele>1.156329</ele>
        <time>2022-09-10T07:54:10.000Z</time>
      </trkpt>
      <trkpt lat="30.240096" lon="-87.746863">
        <ele>1.154997</ele>
        <time>2022-09-10T07:54:13.000Z</time>
      </trkpt>
      <trkpt lat="30.240113" lon="-87.74677">
        <ele>1.153665</ele>
        <time>2022-09-10T07:54:14.000Z</time>
      </trkpt>
      <trkpt lat="30.240274" lon="-87.745716">
        <ele>1.13858</ele>
        <time>2022-09-10T07:54:24.000Z</time>
      </trkpt>
      <trkpt lat="30.24044" lon="-87.744694">
        <ele>1.099025</ele>
        <time>2022-09-10T07:54:34.000Z</time>
      </trkpt>
      <trkpt lat="30.24046" lon="-87.744545">
        <ele>1.085573</ele>
        <time>2022-09-10T07:54:35.000Z</time>
      </trkpt>
      <trkpt lat="30.240642" lon="-87.743496">
        <ele>0.994923</ele>
        <time>2022-09-10T07:54:45.000Z</time>
      </trkpt>
      <trkpt lat="30.240691" lon="-87.743143">
        <ele>0.964292</ele>
        <time>2022-09-10T07:54:48.000Z</time>
      </trkpt>
      <trkpt lat="30.241088" lon="-87.74051">
        <ele>1.144672</ele>
        <time>2022-09-10T07:55:14.000Z</time>
      </trkpt>
      <trkpt lat="30.24126" lon="-87.739195">
        <ele>1.156718</ele>
        <time>2022-09-10T07:55:27.000Z</time>
      </trkpt>
      <trkpt lat="30.2414" lon="-87.738167">
        <ele>1.187451</ele>
        <time>2022-09-10T07:55:37.000Z</time>
      </trkpt>
      <trkpt lat="30.241477" lon="-87.737575">
        <ele>1.210472</ele>
        <time>2022-09-10T07:55:43.000Z</time>
      </trkpt>
      <trkpt lat="30.241593" lon="-87.736513">
        <ele>1.283134</ele>
        <time>2022-09-10T07:55:53.000Z</time>
      </trkpt>
      <trkpt lat="30.241859" lon="-87.734389">
        <ele>1.522028</ele>
        <time>2022-09-10T07:56:14.000Z</time>
      </trkpt>
      <trkpt lat="30.241937" lon="-87.733713">
        <ele>1.501557</ele>
        <time>2022-09-10T07:56:21.000Z</time>
      </trkpt>
      <trkpt lat="30.242009" lon="-87.733142">
        <ele>1.484404</ele>
        <time>2022-09-10T07:56:27.000Z</time>
      </trkpt>
      <trkpt lat="30.242297" lon="-87.730717">
        <ele>1.008802</ele>
        <time>2022-09-10T07:56:51.000Z</time>
      </trkpt>
      <trkpt lat="30.242415" lon="-87.729822">
        <ele>1.02325</ele>
        <time>2022-09-10T07:57:00.000Z</time>
      </trkpt>
      <trkpt lat="30.243332" lon="-87.722331">
        <ele>1.427047</ele>
        <time>2022-09-10T07:58:13.000Z</time>
      </trkpt>
      <trkpt lat="30.243746" lon="-87.718963">
        <ele>1.923037</ele>
        <time>2022-09-10T07:58:46.000Z</time>
      </trkpt>
      <trkpt lat="30.24387" lon="-87.717984">
        <ele>2.023797</ele>
        <time>2022-09-10T07:58:56.000Z</time>
      </trkpt>
      <trkpt lat="30.244016" lon="-87.716831">
        <ele>2.09291</ele>
        <time>2022-09-10T07:59:07.000Z</time>
      </trkpt>
      <trkpt lat="30.244083" lon="-87.716296">
        <ele>2.124028</ele>
        <time>2022-09-10T07:59:12.000Z</time>
      </trkpt>
      <trkpt lat="30.244204" lon="-87.715383">
        <ele>2.223337</ele>
        <time>2022-09-10T07:59:21.000Z</time>
      </trkpt>
      <trkpt lat="30.244488" lon="-87.713102">
        <ele>2.366294</ele>
        <time>2022-09-10T07:59:43.000Z</time>
      </trkpt>
      <trkpt lat="30.244788" lon="-87.710766">
        <ele>2.263384</ele>
        <time>2022-09-10T08:00:06.000Z</time>
      </trkpt>
      <trkpt lat="30.244863" lon="-87.710159">
        <ele>2.214379</ele>
        <time>2022-09-10T08:00:12.000Z</time>
      </trkpt>
      <trkpt lat="30.244941" lon="-87.709508">
        <ele>2.215723</ele>
        <time>2022-09-10T08:00:18.000Z</time>
      </trkpt>
      <trkpt lat="30.245357" lon="-87.706302">
        <ele>2.213259</ele>
        <time>2022-09-10T08:00:49.000Z</time>
      </trkpt>
      <trkpt lat="30.245419" lon="-87.705886">
        <ele>2.195537</ele>
        <time>2022-09-10T08:00:53.000Z</time>
      </trkpt>
      <trkpt lat="30.245555" lon="-87.705098">
        <ele>1.932945</ele>
        <time>2022-09-10T08:01:01.000Z</time>
      </trkpt>
      <trkpt lat="30.245653" lon="-87.704578">
        <ele>1.758341</ele>
        <time>2022-09-10T08:01:06.000Z</time>
      </trkpt>
      <trkpt lat="30.245649" lon="-87.704534">
        <ele>1.744639</ele>
        <time>2022-09-10T08:01:06.000Z</time>
      </trkpt>
      <trkpt lat="30.245707" lon="-87.704264">
        <ele>1.658478</ele>
        <time>2022-09-10T08:01:09.000Z</time>
      </trkpt>
      <trkpt lat="30.245741" lon="-87.704095">
        <ele>1.596092</ele>
        <time>2022-09-10T08:01:11.000Z</time>
      </trkpt>
      <trkpt lat="30.245897" lon="-87.703302">
        <ele>1.406875</ele>
        <time>2022-09-10T08:01:19.000Z</time>
      </trkpt>
      <trkpt lat="30.24613" lon="-87.702113">
        <ele>1.155829</ele>
        <time>2022-09-10T08:01:31.000Z</time>
      </trkpt>
      <trkpt lat="30.246454" lon="-87.700433">
        <ele>1.031556</ele>
        <time>2022-09-10T08:01:48.000Z</time>
      </trkpt>
      <trkpt lat="30.246606" lon="-87.69959">
        <ele>1.002087</ele>
        <time>2022-09-10T08:01:56.000Z</time>
      </trkpt>
      <trkpt lat="30.246785" lon="-87.698675">
        <ele>1.001011</ele>
        <time>2022-09-10T08:02:05.000Z</time>
      </trkpt>
      <trkpt lat="30.246929" lon="-87.697995">
        <ele>1.000245</ele>
        <time>2022-09-10T08:02:12.000Z</time>
      </trkpt>
      <trkpt lat="30.247118" lon="-87.696936">
        <ele>1.000004</ele>
        <time>2022-09-10T08:02:22.000Z</time>
      </trkpt>
      <trkpt lat="30.247199" lon="-87.696575">
        <ele>0.999998</ele>
        <time>2022-09-10T08:02:26.000Z</time>
      </trkpt>
      <trkpt lat="30.247228" lon="-87.696413">
        <ele>0.999993</ele>
        <time>2022-09-10T08:02:28.000Z</time>
      </trkpt>
      <trkpt lat="30.247461" lon="-87.695216">
        <ele>1.075696</ele>
        <time>2022-09-10T08:02:40.000Z</time>
      </trkpt>
      <trkpt lat="30.247644" lon="-87.694298">
        <ele>1.205554</ele>
        <time>2022-09-10T08:02:49.000Z</time>
      </trkpt>
      <trkpt lat="30.247804" lon="-87.693413">
        <ele>1.374681</ele>
        <time>2022-09-10T08:02:58.000Z</time>
      </trkpt>
      <trkpt lat="30.247923" lon="-87.692804">
        <ele>1.54848</ele>
        <time>2022-09-10T08:03:04.000Z</time>
      </trkpt>
      <trkpt lat="30.24808" lon="-87.6921">
        <ele>1.749916</ele>
        <time>2022-09-10T08:03:11.000Z</time>
      </trkpt>
      <trkpt lat="30.248087" lon="-87.692044">
        <ele>1.766418</ele>
        <time>2022-09-10T08:03:12.000Z</time>
      </trkpt>
      <trkpt lat="30.248171" lon="-87.691564">
        <ele>1.834933</ele>
        <time>2022-09-10T08:03:17.000Z</time>
      </trkpt>
      <trkpt lat="30.24809" lon="-87.692049">
        <ele>1.720807</ele>
        <time>2022-09-10T08:03:22.000Z</time>
      </trkpt>
      <trkpt lat="30.248071" lon="-87.6921">
        <ele>1.70722</ele>
        <time>2022-09-10T08:03:23.000Z</time>
      </trkpt>
      <trkpt lat="30.247924" lon="-87.692807">
        <ele>1.541153</ele>
        <time>2022-09-10T08:03:30.000Z</time>
      </trkpt>
      <trkpt lat="30.247816" lon="-87.693418">
        <ele>1.397865</ele>
        <time>2022-09-10T08:03:36.000Z</time>
      </trkpt>
      <trkpt lat="30.247636" lon="-87.694308">
        <ele>1.226417</ele>
        <time>2022-09-10T08:03:45.000Z</time>
      </trkpt>
      <trkpt lat="30.247465" lon="-87.695228">
        <ele>1.050749</ele>
        <time>2022-09-10T08:03:54.000Z</time>
      </trkpt>
      <trkpt lat="30.247232" lon="-87.696407">
        <ele>1.000009</ele>
        <time>2022-09-10T08:04:06.000Z</time>
      </trkpt>
      <trkpt lat="30.247201" lon="-87.696564">
        <ele>0.999997</ele>
        <time>2022-09-10T08:04:08.000Z</time>
      </trkpt>
      <trkpt lat="30.247127" lon="-87.696941">
        <ele>1.000007</ele>
        <time>2022-09-10T08:04:12.000Z</time>
      </trkpt>
      <trkpt lat="30.246923" lon="-87.69799">
        <ele>1.00005</ele>
        <time>2022-09-10T08:04:22.000Z</time>
      </trkpt>
      <trkpt lat="30.246784" lon="-87.698668">
        <ele>1.000139</ele>
        <time>2022-09-10T08:04:29.000Z</time>
      </trkpt>
      <trkpt lat="30.246619" lon="-87.699607">
        <ele>1.002177</ele>
        <time>2022-09-10T08:04:38.000Z</time>
      </trkpt>
      <trkpt lat="30.246465" lon="-87.700433">
        <ele>1.032377</ele>
        <time>2022-09-10T08:04:46.000Z</time>
      </trkpt>
      <trkpt lat="30.246124" lon="-87.702119">
        <ele>1.170759</ele>
        <time>2022-09-10T08:05:03.000Z</time>
      </trkpt>
      <trkpt lat="30.245885" lon="-87.703305">
        <ele>1.384258</ele>
        <time>2022-09-10T08:05:15.000Z</time>
      </trkpt>
      <trkpt lat="30.245746" lon="-87.704091">
        <ele>1.605359</ele>
        <time>2022-09-10T08:05:23.000Z</time>
      </trkpt>
      <trkpt lat="30.245712" lon="-87.704266">
        <ele>1.670887</ele>
        <time>2022-09-10T08:05:25.000Z</time>
      </trkpt>
      <trkpt lat="30.245651" lon="-87.704536">
        <ele>1.76136</ele>
        <time>2022-09-10T08:05:28.000Z</time>
      </trkpt>
      <trkpt lat="30.245646" lon="-87.704564">
        <ele>1.775758</ele>
        <time>2022-09-10T08:05:28.000Z</time>
      </trkpt>
      <trkpt lat="30.245552" lon="-87.705098">
        <ele>1.959123</ele>
        <time>2022-09-10T08:05:33.000Z</time>
      </trkpt>
      <trkpt lat="30.245416" lon="-87.705895">
        <ele>2.163211</ele>
        <time>2022-09-10T08:05:41.000Z</time>
      </trkpt>
      <trkpt lat="30.245355" lon="-87.706296">
        <ele>2.184288</ele>
        <time>2022-09-10T08:05:45.000Z</time>
      </trkpt>
      <trkpt lat="30.24495" lon="-87.709514">
        <ele>2.210848</ele>
        <time>2022-09-10T08:06:16.000Z</time>
      </trkpt>
      <trkpt lat="30.244855" lon="-87.710147">
        <ele>2.229651</ele>
        <time>2022-09-10T08:06:22.000Z</time>
      </trkpt>
      <trkpt lat="30.244778" lon="-87.71075">
        <ele>2.268429</ele>
        <time>2022-09-10T08:06:28.000Z</time>
      </trkpt>
      <trkpt lat="30.244485" lon="-87.713097">
        <ele>2.371406</ele>
        <time>2022-09-10T08:06:51.000Z</time>
      </trkpt>
      <trkpt lat="30.244199" lon="-87.715379">
        <ele>2.217623</ele>
        <time>2022-09-10T08:07:13.000Z</time>
      </trkpt>
      <trkpt lat="30.244075" lon="-87.716299">
        <ele>2.128687</ele>
        <time>2022-09-10T08:07:22.000Z</time>
      </trkpt>
      <trkpt lat="30.244017" lon="-87.716831">
        <ele>2.095705</ele>
        <time>2022-09-10T08:07:27.000Z</time>
      </trkpt>
      <trkpt lat="30.243872" lon="-87.717971">
        <ele>2.022476</ele>
        <time>2022-09-10T08:07:38.000Z</time>
      </trkpt>
      <trkpt lat="30.243755" lon="-87.718963">
        <ele>1.92036</ele>
        <time>2022-09-10T08:07:48.000Z</time>
      </trkpt>
      <trkpt lat="30.243332" lon="-87.722337">
        <ele>1.435488</ele>
        <time>2022-09-10T08:08:21.000Z</time>
      </trkpt>
      <trkpt lat="30.242411" lon="-87.729826">
        <ele>0.937022</ele>
        <time>2022-09-10T08:09:34.000Z</time>
      </trkpt>
      <trkpt lat="30.242304" lon="-87.730708">
        <ele>1.022166</ele>
        <time>2022-09-10T08:09:43.000Z</time>
      </trkpt>
      <trkpt lat="30.242003" lon="-87.733124">
        <ele>1.466031</ele>
        <time>2022-09-10T08:10:06.000Z</time>
      </trkpt>
      <trkpt lat="30.241943" lon="-87.733706">
        <ele>1.504421</ele>
        <time>2022-09-10T08:10:12.000Z</time>
      </trkpt>
      <trkpt lat="30.241868" lon="-87.734393">
        <ele>1.550288</ele>
        <time>2022-09-10T08:10:19.000Z</time>
      </trkpt>
      <trkpt lat="30.241596" lon="-87.736516">
        <ele>1.286577</ele>
        <time>2022-09-10T08:10:40.000Z</time>
      </trkpt>
      <trkpt lat="30.241483" lon="-87.737575">
        <ele>1.21476</ele>
        <time>2022-09-10T08:10:50.000Z</time>
      </trkpt>
      <trkpt lat="30.241391" lon="-87.738175">
        <ele>1.175635</ele>
        <time>2022-09-10T08:10:56.000Z</time>
      </trkpt>
      <trkpt lat="30.241265" lon="-87.739194">
        <ele>1.150472</ele>
        <time>2022-09-10T08:11:06.000Z</time>
      </trkpt>
      <trkpt lat="30.241082" lon="-87.740496">
        <ele>1.159384</ele>
        <time>2022-09-10T08:11:19.000Z</time>
      </trkpt>
      <trkpt lat="30.240697" lon="-87.743152">
        <ele>0.989586</ele>
        <time>2022-09-10T08:11:45.000Z</time>
      </trkpt>
      <trkpt lat="30.240627" lon="-87.743498">
        <ele>1.013302</ele>
        <time>2022-09-10T08:11:48.000Z</time>
      </trkpt>
      <trkpt lat="30.24046" lon="-87.744542">
        <ele>1.083464</ele>
        <time>2022-09-10T08:11:58.000Z</time>
      </trkpt>
      <trkpt lat="30.24045" lon="-87.744701">
        <ele>1.093875</ele>
        <time>2022-09-10T08:12:00.000Z</time>
      </trkpt>
      <trkpt lat="30.240283" lon="-87.74573">
        <ele>1.13441</ele>
        <time>2022-09-10T08:12:10.000Z</time>
      </trkpt>
      <trkpt lat="30.240109" lon="-87.746762">
        <ele>1.173383</ele>
        <time>2022-09-10T08:12:20.000Z</time>
      </trkpt>
      <trkpt lat="30.24009" lon="-87.746847">
        <ele>1.172798</ele>
        <time>2022-09-10T08:12:21.000Z</time>
      </trkpt>
      <trkpt lat="30.240056" lon="-87.747117">
        <ele>1.154196</ele>
        <time>2022-09-10T08:12:24.000Z</time>
      </trkpt>
      <trkpt lat="30.240037" lon="-87.747253">
        <ele>1.144542</ele>
        <time>2022-09-10T08:12:25.000Z</time>
      </trkpt>
      <trkpt lat="30.239983" lon="-87.747492">
        <ele>1.128457</ele>
        <time>2022-09-10T08:12:27.000Z</time>
      </trkpt>
      <trkpt lat="30.239734" lon="-87.749185">
        <ele>1.042403</ele>
        <time>2022-09-10T08:12:43.000Z</time>
      </trkpt>
      <trkpt lat="30.239663" lon="-87.751158">
        <ele>1.117168</ele>
        <time>2022-09-10T08:13:02.000Z</time>
      </trkpt>
      <trkpt lat="30.239624" lon="-87.752255">
        <ele>1.22796</ele>
        <time>2022-09-10T08:13:13.000Z</time>
      </trkpt>
      <trkpt lat="30.239505" lon="-87.75301">
        <ele>1.305157</ele>
        <time>2022-09-10T08:13:20.000Z</time>
      </trkpt>
      <trkpt lat="30.239387" lon="-87.753586">
        <ele>1.351297</ele>
        <time>2022-09-10T08:13:26.000Z</time>
      </trkpt>
      <trkpt lat="30.238776" lon="-87.755502">
        <ele>1.445175</ele>
        <time>2022-09-10T08:13:46.000Z</time>
      </trkpt>
      <trkpt lat="30.238602" lon="-87.756135">
        <ele>1.415801</ele>
        <time>2022-09-10T08:13:52.000Z</time>
      </trkpt>
      <trkpt lat="30.23816" lon="-87.758939">
        <ele>1.187531</ele>
        <time>2022-09-10T08:14:19.000Z</time>
      </trkpt>
      <trkpt lat="30.238113" lon="-87.759223">
        <ele>1.177818</ele>
        <time>2022-09-10T08:14:22.000Z</time>
      </trkpt>
      <trkpt lat="30.238081" lon="-87.759467">
        <ele>1.178297</ele>
        <time>2022-09-10T08:14:24.000Z</time>
      </trkpt>
      <trkpt lat="30.238022" lon="-87.759748">
        <ele>1.178867</ele>
        <time>2022-09-10T08:14:27.000Z</time>
      </trkpt>
      <trkpt lat="30.238013" lon="-87.759906">
        <ele>1.179134</ele>
        <time>2022-09-10T08:14:29.000Z</time>
      </trkpt>
      <trkpt lat="30.237819" lon="-87.761114">
        <ele>1.179588</ele>
        <time>2022-09-10T08:14:41.000Z</time>
      </trkpt>
      <trkpt lat="30.237616" lon="-87.762412">
        <ele>1.097057</ele>
        <time>2022-09-10T08:14:54.000Z</time>
      </trkpt>
      <trkpt lat="30.237469" lon="-87.763704">
        <ele>1.069353</ele>
        <time>2022-09-10T08:15:07.000Z</time>
      </trkpt>
      <trkpt lat="30.237374" lon="-87.765167">
        <ele>1.114155</ele>
        <time>2022-09-10T08:15:21.000Z</time>
      </trkpt>
      <trkpt lat="30.237059" lon="-87.766891">
        <ele>1.308643</ele>
        <time>2022-09-10T08:15:38.000Z</time>
      </trkpt>
      <trkpt lat="30.236926" lon="-87.767647">
        <ele>1.400525</ele>
        <time>2022-09-10T08:15:45.000Z</time>
      </trkpt>
      <trkpt lat="30.236518" lon="-87.769891">
        <ele>1.625958</ele>
        <time>2022-09-10T08:16:07.000Z</time>
      </trkpt>
      <trkpt lat="30.234692" lon="-87.779722">
        <ele>1.744194</ele>
        <time>2022-09-10T08:17:44.000Z</time>
      </trkpt>
      <trkpt lat="30.233752" lon="-87.784447">
        <ele>1.131372</ele>
        <time>2022-09-10T08:18:31.000Z</time>
      </trkpt>
      <trkpt lat="30.233696" lon="-87.784797">
        <ele>1.091425</ele>
        <time>2022-09-10T08:18:34.000Z</time>
      </trkpt>
      <trkpt lat="30.233524" lon="-87.785659">
        <ele>1.004277</ele>
        <time>2022-09-10T08:18:42.000Z</time>
      </trkpt>
      <trkpt lat="30.233483" lon="-87.785788">
        <ele>1.003951</ele>
        <time>2022-09-10T08:18:43.000Z</time>
      </trkpt>
      <trkpt lat="30.233382" lon="-87.786321">
        <ele>1.002774</ele>
        <time>2022-09-10T08:18:48.000Z</time>
      </trkpt>
      <trkpt lat="30.23336" lon="-87.786434">
        <ele>1.002542</ele>
        <time>2022-09-10T08:18:49.000Z</time>
      </trkpt>
      <trkpt lat="30.233271" lon="-87.786889">
        <ele>1.001501</ele>
        <time>2022-09-10T08:18:53.000Z</time>
      </trkpt>
      <trkpt lat="30.233209" lon="-87.787281">
        <ele>1.000679</ele>
        <time>2022-09-10T08:18:57.000Z</time>
      </trkpt>
      <trkpt lat="30.232422" lon="-87.793457">
        <ele>1.000007</ele>
        <time>2022-09-10T08:19:57.000Z</time>
      </trkpt>
      <trkpt lat="30.233198" lon="-87.787279">
        <ele>1.000001</ele>
        <time>2022-09-10T08:20:57.000Z</time>
      </trkpt>
      <trkpt lat="30.233273" lon="-87.786893">
        <ele>1.001524</ele>
        <time>2022-09-10T08:21:01.000Z</time>
      </trkpt>
      <trkpt lat="30.233363" lon="-87.786429">
        <ele>1.011502</ele>
        <time>2022-09-10T08:21:06.000Z</time>
      </trkpt>
      <trkpt lat="30.233382" lon="-87.786324">
        <ele>1.013826</ele>
        <time>2022-09-10T08:21:07.000Z</time>
      </trkpt>
      <trkpt lat="30.233479" lon="-87.785793">
        <ele>1.025274</ele>
        <time>2022-09-10T08:21:12.000Z</time>
      </trkpt>
      <trkpt lat="30.233515" lon="-87.78565">
        <ele>1.028318</ele>
        <time>2022-09-10T08:21:13.000Z</time>
      </trkpt>
      <trkpt lat="30.233682" lon="-87.784789">
        <ele>1.065338</ele>
        <time>2022-09-10T08:21:21.000Z</time>
      </trkpt>
      <trkpt lat="30.233751" lon="-87.784433">
        <ele>1.115838</ele>
        <time>2022-09-10T08:21:25.000Z</time>
      </trkpt>
      <trkpt lat="30.234692" lon="-87.779738">
        <ele>1.720465</ele>
        <time>2022-09-10T08:22:11.000Z</time>
      </trkpt>
      <trkpt lat="30.236513" lon="-87.769889">
        <ele>1.638872</ele>
        <time>2022-09-10T08:23:48.000Z</time>
      </trkpt>
      <trkpt lat="30.236924" lon="-87.767649">
        <ele>1.403554</ele>
        <time>2022-09-10T08:24:10.000Z</time>
      </trkpt>
      <trkpt lat="30.237058" lon="-87.76689">
        <ele>1.306237</ele>
        <time>2022-09-10T08:24:17.000Z</time>
      </trkpt>
      <trkpt lat="30.237375" lon="-87.765163">
        <ele>1.121998</ele>
        <time>2022-09-10T08:24:34.000Z</time>
      </trkpt>
      <trkpt lat="30.237456" lon="-87.763704">
        <ele>1.075282</ele>
        <time>2022-09-10T08:24:48.000Z</time>
      </trkpt>
      <trkpt lat="30.237622" lon="-87.762413">
        <ele>1.097156</ele>
        <time>2022-09-10T08:25:01.000Z</time>
      </trkpt>
      <trkpt lat="30.237826" lon="-87.761115">
        <ele>1.164098</ele>
        <time>2022-09-10T08:25:14.000Z</time>
      </trkpt>
      <trkpt lat="30.23801" lon="-87.759904">
        <ele>1.198174</ele>
        <time>2022-09-10T08:25:26.000Z</time>
      </trkpt>
      <trkpt lat="30.238023" lon="-87.75976">
        <ele>1.198381</ele>
        <time>2022-09-10T08:25:27.000Z</time>
      </trkpt>
      <trkpt lat="30.238074" lon="-87.75947">
        <ele>1.198811</ele>
        <time>2022-09-10T08:25:30.000Z</time>
      </trkpt>
      <trkpt lat="30.238111" lon="-87.75923">
        <ele>1.199174</ele>
        <time>2022-09-10T08:25:32.000Z</time>
      </trkpt>
      <trkpt lat="30.23816" lon="-87.758935">
        <ele>1.199602</ele>
        <time>2022-09-10T08:25:35.000Z</time>
      </trkpt>
      <trkpt lat="30.238615" lon="-87.756149">
        <ele>1.444337</ele>
        <time>2022-09-10T08:26:02.000Z</time>
      </trkpt>
      <trkpt lat="30.238774" lon="-87.755517">
        <ele>1.443257</ele>
        <time>2022-09-10T08:26:08.000Z</time>
      </trkpt>
      <trkpt lat="30.239381" lon="-87.753582">
        <ele>1.352081</ele>
        <time>2022-09-10T08:26:28.000Z</time>
      </trkpt>
      <trkpt lat="30.239512" lon="-87.753025">
        <ele>1.292317</ele>
        <time>2022-09-10T08:26:34.000Z</time>
      </trkpt>
      <trkpt lat="30.23961" lon="-87.752267">
        <ele>1.215995</ele>
        <time>2022-09-10T08:26:41.000Z</time>
      </trkpt>
      <trkpt lat="30.239662" lon="-87.751163">
        <ele>1.126114</ele>
        <time>2022-09-10T08:26:52.000Z</time>
      </trkpt>
      <trkpt lat="30.239728" lon="-87.749194">
        <ele>1.059879</ele>
        <time>2022-09-10T08:27:11.000Z</time>
      </trkpt>
      <trkpt lat="30.239992" lon="-87.747486">
        <ele>1.11044</ele>
        <time>2022-09-10T08:27:28.000Z</time>
      </trkpt>
      <trkpt lat="30.240036" lon="-87.747267">
        <ele>1.125167</ele>
        <time>2022-09-10T08:27:30.000Z</time>
      </trkpt>
      <trkpt lat="30.24005" lon="-87.74712">
        <ele>1.133986</ele>
        <time>2022-09-10T08:27:31.000Z</time>
      </trkpt>
      <trkpt lat="30.240102" lon="-87.746861">
        <ele>1.151</ele>
        <time>2022-09-10T08:27:34.000Z</time>
      </trkpt>
      <trkpt lat="30.240105" lon="-87.746763">
        <ele>1.156896</ele>
        <time>2022-09-10T08:27:35.000Z</time>
      </trkpt>
      <trkpt lat="30.240268" lon="-87.745717">
        <ele>1.152237</ele>
        <time>2022-09-10T08:27:45.000Z</time>
      </trkpt>
      <trkpt lat="30.240437" lon="-87.744708">
        <ele>1.064815</ele>
        <time>2022-09-10T08:27:55.000Z</time>
      </trkpt>
      <trkpt lat="30.240475" lon="-87.744536">
        <ele>1.051599</ele>
        <time>2022-09-10T08:27:57.000Z</time>
      </trkpt>
      <trkpt lat="30.240633" lon="-87.743492">
        <ele>1.018224</ele>
        <time>2022-09-10T08:28:07.000Z</time>
      </trkpt>
      <trkpt lat="30.240698" lon="-87.743146">
        <ele>1.018255</ele>
        <time>2022-09-10T08:28:10.000Z</time>
      </trkpt>
      <trkpt lat="30.24109" lon="-87.74051">
        <ele>1.152474</ele>
        <time>2022-09-10T08:28:36.000Z</time>
      </trkpt>
      <trkpt lat="30.241265" lon="-87.739208">
        <ele>1.167107</ele>
        <time>2022-09-10T08:28:49.000Z</time>
      </trkpt>
      <trkpt lat="30.241389" lon="-87.738175">
        <ele>1.13918</ele>
        <time>2022-09-10T08:28:59.000Z</time>
      </trkpt>
      <trkpt lat="30.241472" lon="-87.737574">
        <ele>1.184167</ele>
        <time>2022-09-10T08:29:05.000Z</time>
      </trkpt>
      <trkpt lat="30.24159" lon="-87.736517">
        <ele>1.31052</ele>
        <time>2022-09-10T08:29:15.000Z</time>
      </trkpt>
      <trkpt lat="30.241861" lon="-87.7344">
        <ele>1.533683</ele>
        <time>2022-09-10T08:29:36.000Z</time>
      </trkpt>
      <trkpt lat="30.241933" lon="-87.733701">
        <ele>1.561485</ele>
        <time>2022-09-10T08:29:43.000Z</time>
      </trkpt>
      <trkpt lat="30.242015" lon="-87.733129">
        <ele>1.473664</ele>
        <time>2022-09-10T08:29:49.000Z</time>
      </trkpt>
      <trkpt lat="30.242309" lon="-87.730715">
        <ele>1.06007</ele>
        <time>2022-09-10T08:30:12.000Z</time>
      </trkpt>
      <trkpt lat="30.242405" lon="-87.729837">
        <ele>0.889635</ele>
        <time>2022-09-10T08:30:21.000Z</time>
      </trkpt>
      <trkpt lat="30.243326" lon="-87.722331">
        <ele>1.448903</ele>
        <time>2022-09-10T08:31:34.000Z</time>
      </trkpt>
      <trkpt lat="30.24374" lon="-87.718962">
        <ele>1.9365</ele>
        <time>2022-09-10T08:32:07.000Z</time>
      </trkpt>
      <trkpt lat="30.243865" lon="-87.71797">
        <ele>2.007517</ele>
        <time>2022-09-10T08:32:17.000Z</time>
      </trkpt>
      <trkpt lat="30.24402" lon="-87.716819">
        <ele>2.094808</ele>
        <time>2022-09-10T08:32:28.000Z</time>
      </trkpt>
      <trkpt lat="30.244076" lon="-87.716292">
        <ele>2.135745</ele>
        <time>2022-09-10T08:32:33.000Z</time>
      </trkpt>
      <trkpt lat="30.244205" lon="-87.715385">
        <ele>2.208421</ele>
        <time>2022-09-10T08:32:42.000Z</time>
      </trkpt>
      <trkpt lat="30.244482" lon="-87.7131">
        <ele>2.418002</ele>
        <time>2022-09-10T08:33:04.000Z</time>
      </trkpt>
      <trkpt lat="30.24479" lon="-87.710749">
        <ele>2.256245</ele>
        <time>2022-09-10T08:33:27.000Z</time>
      </trkpt>
      <trkpt lat="30.244864" lon="-87.710146">
        <ele>2.240751</ele>
        <time>2022-09-10T08:33:33.000Z</time>
      </trkpt>
      <trkpt lat="30.244953" lon="-87.709515">
        <ele>2.224431</ele>
        <time>2022-09-10T08:33:39.000Z</time>
      </trkpt>
      <trkpt lat="30.245357" lon="-87.706288">
        <ele>2.156035</ele>
        <time>2022-09-10T08:34:10.000Z</time>
      </trkpt>
      <trkpt lat="30.245421" lon="-87.705893">
        <ele>2.093628</ele>
        <time>2022-09-10T08:34:14.000Z</time>
      </trkpt>
      <trkpt lat="30.24555" lon="-87.705097">
        <ele>1.972752</ele>
        <time>2022-09-10T08:34:22.000Z</time>
      </trkpt>
      <trkpt lat="30.245652" lon="-87.704564">
        <ele>1.808011</ele>
        <time>2022-09-10T08:34:27.000Z</time>
      </trkpt>
      <trkpt lat="30.245648" lon="-87.704531">
        <ele>1.794114</ele>
        <time>2022-09-10T08:34:27.000Z</time>
      </trkpt>
      <trkpt lat="30.245712" lon="-87.704276">
        <ele>1.706815</ele>
        <time>2022-09-10T08:34:30.000Z</time>
      </trkpt>
      <trkpt lat="30.24573" lon="-87.704095">
        <ele>1.643577</ele>
        <time>2022-09-10T08:34:32.000Z</time>
      </trkpt>
      <trkpt lat="30.245889" lon="-87.703304">
        <ele>1.380676</ele>
        <time>2022-09-10T08:34:40.000Z</time>
      </trkpt>
      <trkpt lat="30.246121" lon="-87.702117">
        <ele>1.170886</ele>
        <time>2022-09-10T08:34:52.000Z</time>
      </trkpt>
      <trkpt lat="30.246449" lon="-87.700438">
        <ele>1.025828</ele>
        <time>2022-09-10T08:35:09.000Z</time>
      </trkpt>
      <trkpt lat="30.246603" lon="-87.699597">
        <ele>1.011472</ele>
        <time>2022-09-10T08:35:17.000Z</time>
      </trkpt>
      <trkpt lat="30.246799" lon="-87.698677">
        <ele>1.000003</ele>
        <time>2022-09-10T08:35:26.000Z</time>
      </trkpt>
      <trkpt lat="30.246915" lon="-87.697984">
        <ele>0.999994</ele>
        <time>2022-09-10T08:35:33.000Z</time>
      </trkpt>
      <trkpt lat="30.247119" lon="-87.696931">
        <ele>0.999997</ele>
        <time>2022-09-10T08:35:43.000Z</time>
      </trkpt>
      <trkpt lat="30.247195" lon="-87.696568">
        <ele>1.003659</ele>
        <time>2022-09-10T08:35:47.000Z</time>
      </trkpt>
      <trkpt lat="30.247234" lon="-87.696415">
        <ele>1.005377</ele>
        <time>2022-09-10T08:35:49.000Z</time>
      </trkpt>
      <trkpt lat="30.24747" lon="-87.695224">
        <ele>1.018433</ele>
        <time>2022-09-10T08:36:01.000Z</time>
      </trkpt>
      <trkpt lat="30.247634" lon="-87.694309">
        <ele>1.193385</ele>
        <time>2022-09-10T08:36:10.000Z</time>
      </trkpt>
      <trkpt lat="30.247811" lon="-87.693425">
        <ele>1.460172</ele>
        <time>2022-09-10T08:36:19.000Z</time>
      </trkpt>
      <trkpt lat="30.247926" lon="-87.692808">
        <ele>1.64090386804</ele>
        <time>2022-09-10T08:36:25.000Z</time>
      </trkpt>
      <trkpt lat="30.248071" lon="-87.692095">
        <ele>1.85063887592</ele>
        <time>2022-09-10T08:36:32.000Z</time>
      </trkpt>
      <trkpt lat="30.248084" lon="-87.692048">
        <ele>1.86476943542</ele>
        <time>2022-09-10T08:36:32.000Z</time>
      </trkpt>
      <trkpt lat="30.248183" lon="-87.691562">
        <ele>2.00774275215</ele>
        <time>2022-09-10T08:36:37.000Z</time>
      </trkpt>
    </trkseg>
  </trk>
</gpx>

<!--
Performance optimized by W3 Total Cache. Learn more: https://www.boldgrid.com/w3-total-cache/?utm_source=w3tc&utm_medium=footer_comment&utm_campaign=free_plugin

Page Caching using Disk: Enhanced{w3tc_pagecache_reject_reason} 

Served from: www.aquabike.world @ 2026-05-10 21:41:18 by W3 Total Cache
-->